sensor_id;sensor_type;location;lat;lon;timestamp;temperature;humidity
16929;DHT22;8581;47.334;11.190;2023-05-07T00:02:17;10.00;99.90
16929;DHT22;8581;47.334;11.190;2023-05-07T00:04:48;10.20;99.90
16929;DHT22;8581;47.334;11.190;2023-05-07T00:07:20;10.30;99.90
16929;DHT22;8581;47.334;11.190;2023-05-07T00:09:52;10.30;99.90
16929;DHT22;8581;47.334;11.190;2023-05-07T00:12:26;10.30;99.90
16929;DHT22;8581;47.334;11.190;2023-05-07T00:14:57;10.20;99.90
16929;DHT22;8581;47.334;11.190;2023-05-07T00:17:29;10.20;99.90
16929;DHT22;8581;47.334;11.190;2023-05-07T00:20:00;10.20;99.90
16929;DHT22;8581;47.334;11.190;2023-05-07T00:22:32;10.10;99.90
16929;DHT22;8581;47.334;11.190;2023-05-07T00:25:04;10.20;99.90
16929;DHT22;8581;47.334;11.190;2023-05-07T00:27:37;10.20;99.90
16929;DHT22;8581;47.334;11.190;2023-05-07T00:30:09;10.20;99.90
16929;DHT22;8581;47.334;11.190;2023-05-07T00:32:41;10.10;99.90
16929;DHT22;8581;47.334;11.190;2023-05-07T00:35:13;10.10;99.90
16929;DHT22;8581;47.334;11.190;2023-05-07T00:37:44;10.20;99.90
16929;DHT22;8581;47.334;11.190;2023-05-07T00:40:16;10.30;99.90
16929;DHT22;8581;47.334;11.190;2023-05-07T00:42:47;10.30;99.90
16929;DHT22;8581;47.334;11.190;2023-05-07T00:45:19;10.20;99.90
16929;DHT22;8581;47.334;11.190;2023-05-07T00:47:51;10.30;99.90
16929;DHT22;8581;47.334;11.190;2023-05-07T00:50:22;10.40;99.90
16929;DHT22;8581;47.334;11.190;2023-05-07T00:52:54;10.50;99.90
16929;DHT22;8581;47.334;11.190;2023-05-07T00:55:25;10.40;99.90
16929;DHT22;8581;47.334;11.190;2023-05-07T00:57:57;10.30;99.90
16929;DHT22;8581;47.334;11.190;2023-05-07T01:00:29;10.20;99.90
16929;DHT22;8581;47.334;11.190;2023-05-07T01:03:00;10.10;99.90
16929;DHT22;8581;47.334;11.190;2023-05-07T01:05:32;10.10;99.90
16929;DHT22;8581;47.334;11.190;2023-05-07T01:08:04;10.00;99.90
16929;DHT22;8581;47.334;11.190;2023-05-07T01:10:35;10.10;99.90
16929;DHT22;8581;47.334;11.190;2023-05-07T01:13:07;10.10;99.90
16929;DHT22;8581;47.334;11.190;2023-05-07T01:15:39;10.20;99.90
16929;DHT22;8581;47.334;11.190;2023-05-07T01:18:10;10.20;99.90
16929;DHT22;8581;47.334;11.190;2023-05-07T01:20:42;10.30;99.90
16929;DHT22;8581;47.334;11.190;2023-05-07T01:23:13;10.40;99.90
16929;DHT22;8581;47.334;11.190;2023-05-07T01:25:52;10.30;99.90
16929;DHT22;8581;47.334;11.190;2023-05-07T01:28:23;10.30;99.90
16929;DHT22;8581;47.334;11.190;2023-05-07T01:31:01;10.20;99.90
16929;DHT22;8581;47.334;11.190;2023-05-07T01:33:27;10.20;99.90
16929;DHT22;8581;47.334;11.190;2023-05-07T01:35:58;10.20;99.90
16929;DHT22;8581;47.334;11.190;2023-05-07T01:38:30;10.20;99.90
16929;DHT22;8581;47.334;11.190;2023-05-07T01:41:02;10.20;99.90
16929;DHT22;8581;47.334;11.190;2023-05-07T01:43:33;10.30;99.90
16929;DHT22;8581;47.334;11.190;2023-05-07T01:46:05;10.20;99.90
16929;DHT22;8581;47.334;11.190;2023-05-07T01:48:36;10.10;99.90
16929;DHT22;8581;47.334;11.190;2023-05-07T01:51:09;9.90;99.90
16929;DHT22;8581;47.334;11.190;2023-05-07T01:53:40;9.90;99.90
16929;DHT22;8581;47.334;11.190;2023-05-07T01:56:12;10.00;99.90
16929;DHT22;8581;47.334;11.190;2023-05-07T01:58:44;10.00;99.90
16929;DHT22;8581;47.334;11.190;2023-05-07T02:01:15;9.90;99.90
16929;DHT22;8581;47.334;11.190;2023-05-07T02:03:47;9.90;99.90
16929;DHT22;8581;47.334;11.190;2023-05-07T02:06:18;9.90;99.90
16929;DHT22;8581;47.334;11.190;2023-05-07T02:08:50;9.90;99.90
16929;DHT22;8581;47.334;11.190;2023-05-07T02:11:21;9.90;99.90
16929;DHT22;8581;47.334;11.190;2023-05-07T02:13:53;10.00;99.90
16929;DHT22;8581;47.334;11.190;2023-05-07T02:16:25;9.90;99.90
16929;DHT22;8581;47.334;11.190;2023-05-07T02:18:56;9.80;99.90
16929;DHT22;8581;47.334;11.190;2023-05-07T02:21:28;9.70;99.90
16929;DHT22;8581;47.334;11.190;2023-05-07T02:23:59;9.70;99.90
16929;DHT22;8581;47.334;11.190;2023-05-07T02:26:31;9.70;99.90
16929;DHT22;8581;47.334;11.190;2023-05-07T02:29:03;9.50;99.90
16929;DHT22;8581;47.334;11.190;2023-05-07T02:31:34;9.50;99.90
16929;DHT22;8581;47.334;11.190;2023-05-07T02:34:06;9.60;99.90
16929;DHT22;8581;47.334;11.190;2023-05-07T02:36:37;9.80;99.90
16929;DHT22;8581;47.334;11.190;2023-05-07T02:39:09;9.90;99.90
16929;DHT22;8581;47.334;11.190;2023-05-07T02:41:41;9.80;99.90
16929;DHT22;8581;47.334;11.190;2023-05-07T02:44:12;9.70;99.90
16929;DHT22;8581;47.334;11.190;2023-05-07T02:46:44;9.70;99.90
16929;DHT22;8581;47.334;11.190;2023-05-07T02:49:15;9.70;99.90
16929;DHT22;8581;47.334;11.190;2023-05-07T02:51:47;9.90;99.90
16929;DHT22;8581;47.334;11.190;2023-05-07T02:54:18;9.70;99.90
16929;DHT22;8581;47.334;11.190;2023-05-07T02:56:50;9.70;99.90
16929;DHT22;8581;47.334;11.190;2023-05-07T02:59:22;9.70;99.90
16929;DHT22;8581;47.334;11.190;2023-05-07T03:01:53;9.70;99.90
16929;DHT22;8581;47.334;11.190;2023-05-07T03:04:25;9.70;99.90
16929;DHT22;8581;47.334;11.190;2023-05-07T03:06:56;9.60;99.90
16929;DHT22;8581;47.334;11.190;2023-05-07T03:09:28;9.60;99.90
16929;DHT22;8581;47.334;11.190;2023-05-07T03:12:00;9.60;99.90
16929;DHT22;8581;47.334;11.190;2023-05-07T03:14:31;9.60;99.90
16929;DHT22;8581;47.334;11.190;2023-05-07T03:17:03;9.50;99.90
16929;DHT22;8581;47.334;11.190;2023-05-07T03:19:34;9.70;99.90
16929;DHT22;8581;47.334;11.190;2023-05-07T03:22:06;9.60;99.90
16929;DHT22;8581;47.334;11.190;2023-05-07T03:24:38;9.40;99.90
16929;DHT22;8581;47.334;11.190;2023-05-07T03:27:09;9.40;99.90
16929;DHT22;8581;47.334;11.190;2023-05-07T03:29:41;9.50;99.90
16929;DHT22;8581;47.334;11.190;2023-05-07T03:32:12;9.60;99.90
16929;DHT22;8581;47.334;11.190;2023-05-07T03:34:44;9.50;99.90
16929;DHT22;8581;47.334;11.190;2023-05-07T03:37:16;9.40;99.90
16929;DHT22;8581;47.334;11.190;2023-05-07T03:39:47;9.60;99.90
16929;DHT22;8581;47.334;11.190;2023-05-07T03:42:19;9.50;99.90
16929;DHT22;8581;47.334;11.190;2023-05-07T03:44:50;9.30;99.90
16929;DHT22;8581;47.334;11.190;2023-05-07T03:47:22;9.50;99.90
16929;DHT22;8581;47.334;11.190;2023-05-07T03:49:53;9.40;99.90
16929;DHT22;8581;47.334;11.190;2023-05-07T03:52:25;9.30;99.90
16929;DHT22;8581;47.334;11.190;2023-05-07T03:54:57;9.40;99.90
16929;DHT22;8581;47.334;11.190;2023-05-07T03:57:28;9.50;99.90
16929;DHT22;8581;47.334;11.190;2023-05-07T04:00:00;9.50;99.90
16929;DHT22;8581;47.334;11.190;2023-05-07T04:02:32;9.40;99.90
16929;DHT22;8581;47.334;11.190;2023-05-07T04:05:04;9.30;99.90
16929;DHT22;8581;47.334;11.190;2023-05-07T04:07:35;9.40;99.90
16929;DHT22;8581;47.334;11.190;2023-05-07T04:10:08;9.30;99.90
16929;DHT22;8581;47.334;11.190;2023-05-07T04:12:39;9.40;99.90
16929;DHT22;8581;47.334;11.190;2023-05-07T04:15:11;9.50;99.90
16929;DHT22;8581;47.334;11.190;2023-05-07T04:17:43;9.60;99.90
16929;DHT22;8581;47.334;11.190;2023-05-07T04:20:15;9.50;99.90
16929;DHT22;8581;47.334;11.190;2023-05-07T04:22:46;9.60;99.90
16929;DHT22;8581;47.334;11.190;2023-05-07T04:25:17;9.60;99.90
16929;DHT22;8581;47.334;11.190;2023-05-07T04:27:49;9.50;99.90
16929;DHT22;8581;47.334;11.190;2023-05-07T04:30:21;9.30;99.90
16929;DHT22;8581;47.334;11.190;2023-05-07T04:32:52;9.40;99.90
16929;DHT22;8581;47.334;11.190;2023-05-07T04:35:24;9.50;99.90
16929;DHT22;8581;47.334;11.190;2023-05-07T04:37:55;9.50;99.90
16929;DHT22;8581;47.334;11.190;2023-05-07T04:40:27;9.50;99.90
16929;DHT22;8581;47.334;11.190;2023-05-07T04:42:59;9.70;99.90
16929;DHT22;8581;47.334;11.190;2023-05-07T04:45:30;9.60;99.90
16929;DHT22;8581;47.334;11.190;2023-05-07T04:48:02;9.60;99.90
16929;DHT22;8581;47.334;11.190;2023-05-07T04:50:34;9.70;99.90
16929;DHT22;8581;47.334;11.190;2023-05-07T04:53:05;9.80;99.90
16929;DHT22;8581;47.334;11.190;2023-05-07T04:55:37;9.90;99.90
16929;DHT22;8581;47.334;11.190;2023-05-07T04:58:08;10.00;99.90
16929;DHT22;8581;47.334;11.190;2023-05-07T05:00:40;10.20;99.90
16929;DHT22;8581;47.334;11.190;2023-05-07T05:03:11;10.30;99.90
16929;DHT22;8581;47.334;11.190;2023-05-07T05:05:43;10.30;99.90
16929;DHT22;8581;47.334;11.190;2023-05-07T05:08:15;10.40;99.90
16929;DHT22;8581;47.334;11.190;2023-05-07T05:10:46;10.40;99.90
16929;DHT22;8581;47.334;11.190;2023-05-07T05:13:18;10.30;99.90
16929;DHT22;8581;47.334;11.190;2023-05-07T05:15:50;10.40;99.90
16929;DHT22;8581;47.334;11.190;2023-05-07T05:18:21;10.50;99.90
16929;DHT22;8581;47.334;11.190;2023-05-07T05:20:53;10.50;99.90
16929;DHT22;8581;47.334;11.190;2023-05-07T05:23:24;10.70;99.90
16929;DHT22;8581;47.334;11.190;2023-05-07T05:25:56;10.70;99.90
16929;DHT22;8581;47.334;11.190;2023-05-07T05:28:28;10.90;99.90
16929;DHT22;8581;47.334;11.190;2023-05-07T05:30:59;11.10;99.90
16929;DHT22;8581;47.334;11.190;2023-05-07T05:33:31;11.10;99.90
16929;DHT22;8581;47.334;11.190;2023-05-07T05:36:03;11.30;99.90
16929;DHT22;8581;47.334;11.190;2023-05-07T05:38:35;11.20;99.90
16929;DHT22;8581;47.334;11.190;2023-05-07T05:41:07;11.40;99.90
16929;DHT22;8581;47.334;11.190;2023-05-07T05:43:38;11.50;99.90
16929;DHT22;8581;47.334;11.190;2023-05-07T05:46:10;11.70;99.90
16929;DHT22;8581;47.334;11.190;2023-05-07T05:48:42;11.80;99.90
16929;DHT22;8581;47.334;11.190;2023-05-07T05:51:13;11.90;99.90
16929;DHT22;8581;47.334;11.190;2023-05-07T05:53:45;12.20;99.90
16929;DHT22;8581;47.334;11.190;2023-05-07T05:56:16;12.20;99.90
16929;DHT22;8581;47.334;11.190;2023-05-07T05:58:48;12.40;99.90
16929;DHT22;8581;47.334;11.190;2023-05-07T06:01:20;12.50;99.90
16929;DHT22;8581;47.334;11.190;2023-05-07T06:03:51;12.60;99.90
16929;DHT22;8581;47.334;11.190;2023-05-07T06:06:23;12.80;99.90
16929;DHT22;8581;47.334;11.190;2023-05-07T06:08:54;12.80;99.90
16929;DHT22;8581;47.334;11.190;2023-05-07T06:11:26;12.90;99.90
16929;DHT22;8581;47.334;11.190;2023-05-07T06:13:58;12.80;99.90
16929;DHT22;8581;47.334;11.190;2023-05-07T06:16:29;12.90;99.90
16929;DHT22;8581;47.334;11.190;2023-05-07T06:19:01;13.00;99.90
16929;DHT22;8581;47.334;11.190;2023-05-07T06:21:33;13.10;99.90
16929;DHT22;8581;47.334;11.190;2023-05-07T06:24:05;13.10;99.90
16929;DHT22;8581;47.334;11.190;2023-05-07T06:26:37;13.10;99.90
16929;DHT22;8581;47.334;11.190;2023-05-07T06:29:08;13.20;99.90
16929;DHT22;8581;47.334;11.190;2023-05-07T06:31:40;13.50;99.90
16929;DHT22;8581;47.334;11.190;2023-05-07T06:34:11;13.60;99.90
16929;DHT22;8581;47.334;11.190;2023-05-07T06:36:44;13.60;99.90
16929;DHT22;8581;47.334;11.190;2023-05-07T06:39:15;13.90;99.90
16929;DHT22;8581;47.334;11.190;2023-05-07T06:41:47;14.10;99.90
16929;DHT22;8581;47.334;11.190;2023-05-07T06:44:18;14.00;99.90
16929;DHT22;8581;47.334;11.190;2023-05-07T06:46:50;14.20;99.90
16929;DHT22;8581;47.334;11.190;2023-05-07T06:49:22;14.40;99.90
16929;DHT22;8581;47.334;11.190;2023-05-07T06:51:53;14.40;99.90
16929;DHT22;8581;47.334;11.190;2023-05-07T06:54:25;14.50;99.90
16929;DHT22;8581;47.334;11.190;2023-05-07T06:56:56;14.70;99.90
16929;DHT22;8581;47.334;11.190;2023-05-07T06:59:28;14.80;99.90
16929;DHT22;8581;47.334;11.190;2023-05-07T07:01:59;14.80;99.90
16929;DHT22;8581;47.334;11.190;2023-05-07T07:04:31;14.80;99.90
16929;DHT22;8581;47.334;11.190;2023-05-07T07:07:03;14.90;99.90
16929;DHT22;8581;47.334;11.190;2023-05-07T07:09:34;14.80;99.90
16929;DHT22;8581;47.334;11.190;2023-05-07T07:12:06;14.40;99.90
16929;DHT22;8581;47.334;11.190;2023-05-07T07:14:37;14.40;99.90
16929;DHT22;8581;47.334;11.190;2023-05-07T07:17:09;14.50;99.90
16929;DHT22;8581;47.334;11.190;2023-05-07T07:19:41;14.50;99.90
16929;DHT22;8581;47.334;11.190;2023-05-07T07:22:12;14.40;99.90
16929;DHT22;8581;47.334;11.190;2023-05-07T07:24:44;14.40;99.90
16929;DHT22;8581;47.334;11.190;2023-05-07T07:27:15;14.50;99.90
16929;DHT22;8581;47.334;11.190;2023-05-07T07:29:47;14.60;99.90
16929;DHT22;8581;47.334;11.190;2023-05-07T07:32:19;14.70;99.90
16929;DHT22;8581;47.334;11.190;2023-05-07T07:34:50;14.90;99.90
16929;DHT22;8581;47.334;11.190;2023-05-07T07:37:22;15.00;99.90
16929;DHT22;8581;47.334;11.190;2023-05-07T07:39:54;15.00;99.90
16929;DHT22;8581;47.334;11.190;2023-05-07T07:42:25;15.10;99.90
16929;DHT22;8581;47.334;11.190;2023-05-07T07:44:57;15.20;99.90
16929;DHT22;8581;47.334;11.190;2023-05-07T07:47:28;15.20;99.90
16929;DHT22;8581;47.334;11.190;2023-05-07T07:50:00;15.40;99.90
16929;DHT22;8581;47.334;11.190;2023-05-07T07:52:31;15.40;99.90
16929;DHT22;8581;47.334;11.190;2023-05-07T07:55:04;15.60;99.90
16929;DHT22;8581;47.334;11.190;2023-05-07T07:57:40;15.60;99.90
16929;DHT22;8581;47.334;11.190;2023-05-07T08:00:13;15.80;99.90
16929;DHT22;8581;47.334;11.190;2023-05-07T08:02:45;15.70;99.90
16929;DHT22;8581;47.334;11.190;2023-05-07T08:05:16;15.90;99.90
16929;DHT22;8581;47.334;11.190;2023-05-07T08:07:48;15.90;99.90
16929;DHT22;8581;47.334;11.190;2023-05-07T08:10:22;16.10;99.90
16929;DHT22;8581;47.334;11.190;2023-05-07T08:12:54;16.20;99.90
16929;DHT22;8581;47.334;11.190;2023-05-07T08:15:27;16.40;99.90
16929;DHT22;8581;47.334;11.190;2023-05-07T08:18:00;16.50;99.90
16929;DHT22;8581;47.334;11.190;2023-05-07T08:20:31;16.50;99.90
16929;DHT22;8581;47.334;11.190;2023-05-07T08:23:02;16.60;99.90
16929;DHT22;8581;47.334;11.190;2023-05-07T08:25:34;16.60;99.90
16929;DHT22;8581;47.334;11.190;2023-05-07T08:28:05;16.90;99.90
16929;DHT22;8581;47.334;11.190;2023-05-07T08:30:37;17.00;99.90
16929;DHT22;8581;47.334;11.190;2023-05-07T08:33:08;17.30;99.90
16929;DHT22;8581;47.334;11.190;2023-05-07T08:35:40;17.30;99.90
16929;DHT22;8581;47.334;11.190;2023-05-07T08:38:12;17.60;99.90
16929;DHT22;8581;47.334;11.190;2023-05-07T08:40:43;17.90;99.90
16929;DHT22;8581;47.334;11.190;2023-05-07T08:43:15;18.00;99.90
16929;DHT22;8581;47.334;11.190;2023-05-07T08:45:47;18.20;99.90
16929;DHT22;8581;47.334;11.190;2023-05-07T08:48:18;18.50;99.90
16929;DHT22;8581;47.334;11.190;2023-05-07T08:50:50;19.00;99.90
16929;DHT22;8581;47.334;11.190;2023-05-07T08:53:22;19.10;99.90
16929;DHT22;8581;47.334;11.190;2023-05-07T08:55:54;19.20;99.90
16929;DHT22;8581;47.334;11.190;2023-05-07T08:58:26;19.10;99.90
16929;DHT22;8581;47.334;11.190;2023-05-07T09:00:57;19.60;99.90
16929;DHT22;8581;47.334;11.190;2023-05-07T09:03:30;20.00;99.90
16929;DHT22;8581;47.334;11.190;2023-05-07T09:06:00;20.00;99.90
16929;DHT22;8581;47.334;11.190;2023-05-07T09:08:32;20.10;99.90
16929;DHT22;8581;47.334;11.190;2023-05-07T09:11:04;20.40;99.90
16929;DHT22;8581;47.334;11.190;2023-05-07T09:13:35;20.50;99.90
16929;DHT22;8581;47.334;11.190;2023-05-07T09:16:10;20.90;99.90
16929;DHT22;8581;47.334;11.190;2023-05-07T09:18:42;21.40;99.90
16929;DHT22;8581;47.334;11.190;2023-05-07T09:21:15;21.10;99.90
16929;DHT22;8581;47.334;11.190;2023-05-07T09:23:55;21.20;99.90
16929;DHT22;8581;47.334;11.190;2023-05-07T09:26:26;21.70;99.90
16929;DHT22;8581;47.334;11.190;2023-05-07T09:28:57;21.50;99.90
16929;DHT22;8581;47.334;11.190;2023-05-07T09:31:29;21.70;99.90
16929;DHT22;8581;47.334;11.190;2023-05-07T09:34:00;21.70;99.90
16929;DHT22;8581;47.334;11.190;2023-05-07T09:36:32;22.20;99.90
16929;DHT22;8581;47.334;11.190;2023-05-07T09:39:04;22.60;99.90
16929;DHT22;8581;47.334;11.190;2023-05-07T09:41:42;23.30;99.90
16929;DHT22;8581;47.334;11.190;2023-05-07T09:44:07;23.50;99.90
16929;DHT22;8581;47.334;11.190;2023-05-07T09:46:39;23.70;99.90
16929;DHT22;8581;47.334;11.190;2023-05-07T09:49:16;24.00;99.90
16929;DHT22;8581;47.334;11.190;2023-05-07T09:51:50;24.50;99.90
16929;DHT22;8581;47.334;11.190;2023-05-07T09:54:24;24.60;99.70
16929;DHT22;8581;47.334;11.190;2023-05-07T09:56:55;24.50;99.70
16929;DHT22;8581;47.334;11.190;2023-05-07T09:59:27;24.30;97.80
16929;DHT22;8581;47.334;11.190;2023-05-07T10:01:59;24.70;98.00
16929;DHT22;8581;47.334;11.190;2023-05-07T10:04:31;25.30;98.80
16929;DHT22;8581;47.334;11.190;2023-05-07T10:07:02;25.90;95.70
16929;DHT22;8581;47.334;11.190;2023-05-07T10:09:33;25.60;97.60
16929;DHT22;8581;47.334;11.190;2023-05-07T10:12:06;25.80;95.40
16929;DHT22;8581;47.334;11.190;2023-05-07T10:14:38;26.40;92.80
16929;DHT22;8581;47.334;11.190;2023-05-07T10:17:09;26.40;91.80
16929;DHT22;8581;47.334;11.190;2023-05-07T10:19:44;26.70;89.30
16929;DHT22;8581;47.334;11.190;2023-05-07T10:22:14;27.30;93.60
16929;DHT22;8581;47.334;11.190;2023-05-07T10:24:45;27.00;90.00
16929;DHT22;8581;47.334;11.190;2023-05-07T10:27:17;27.00;88.60
16929;DHT22;8581;47.334;11.190;2023-05-07T10:30:03;27.40;88.30
16929;DHT22;8581;47.334;11.190;2023-05-07T10:32:37;27.40;89.10
16929;DHT22;8581;47.334;11.190;2023-05-07T10:35:06;27.00;88.40
16929;DHT22;8581;47.334;11.190;2023-05-07T10:37:37;26.30;86.40
16929;DHT22;8581;47.334;11.190;2023-05-07T10:40:09;25.10;89.80
16929;DHT22;8581;47.334;11.190;2023-05-07T10:42:56;25.10;87.50
16929;DHT22;8581;47.334;11.190;2023-05-07T10:45:28;25.10;86.60
16929;DHT22;8581;47.334;11.190;2023-05-07T10:48:09;24.50;88.10
16929;DHT22;8581;47.334;11.190;2023-05-07T10:50:40;24.20;89.40
16929;DHT22;8581;47.334;11.190;2023-05-07T10:53:24;24.20;91.20
16929;DHT22;8581;47.334;11.190;2023-05-07T10:58:38;25.30;88.90
16929;DHT22;8581;47.334;11.190;2023-05-07T11:01:10;25.00;85.90
16929;DHT22;8581;47.334;11.190;2023-05-07T11:06:38;24.70;88.10
16929;DHT22;8581;47.334;11.190;2023-05-07T11:09:09;24.10;88.40
16929;DHT22;8581;47.334;11.190;2023-05-07T11:11:45;23.60;91.20
16929;DHT22;8581;47.334;11.190;2023-05-07T11:17:02;23.90;91.70
16929;DHT22;8581;47.334;11.190;2023-05-07T11:19:51;23.70;90.90
16929;DHT22;8581;47.334;11.190;2023-05-07T11:22:37;23.50;91.30
16929;DHT22;8581;47.334;11.190;2023-05-07T11:25:17;22.50;91.30
16929;DHT22;8581;47.334;11.190;2023-05-07T11:27:43;22.90;91.90
16929;DHT22;8581;47.334;11.190;2023-05-07T11:30:17;23.10;91.70
16929;DHT22;8581;47.334;11.190;2023-05-07T11:32:48;23.30;90.30
16929;DHT22;8581;47.334;11.190;2023-05-07T11:35:22;23.80;90.80
16929;DHT22;8581;47.334;11.190;2023-05-07T11:37:57;24.60;90.90
16929;DHT22;8581;47.334;11.190;2023-05-07T11:40:23;24.30;89.80
16929;DHT22;8581;47.334;11.190;2023-05-07T11:42:55;25.00;88.70
16929;DHT22;8581;47.334;11.190;2023-05-07T11:45:26;24.60;87.70
16929;DHT22;8581;47.334;11.190;2023-05-07T11:47:58;25.60;84.10
16929;DHT22;8581;47.334;11.190;2023-05-07T11:50:30;26.20;85.60
16929;DHT22;8581;47.334;11.190;2023-05-07T11:53:07;26.70;82.10
16929;DHT22;8581;47.334;11.190;2023-05-07T11:55:33;26.20;88.30
16929;DHT22;8581;47.334;11.190;2023-05-07T11:58:05;26.80;82.90
16929;DHT22;8581;47.334;11.190;2023-05-07T12:00:36;27.60;80.60
16929;DHT22;8581;47.334;11.190;2023-05-07T12:03:08;27.30;80.00
16929;DHT22;8581;47.334;11.190;2023-05-07T12:05:40;25.40;83.60
16929;DHT22;8581;47.334;11.190;2023-05-07T12:08:15;25.40;87.90
16929;DHT22;8581;47.334;11.190;2023-05-07T12:10:47;25.40;91.90
16929;DHT22;8581;47.334;11.190;2023-05-07T12:13:19;26.60;88.70
16929;DHT22;8581;47.334;11.190;2023-05-07T12:15:52;26.90;86.20
16929;DHT22;8581;47.334;11.190;2023-05-07T12:18:23;26.60;88.70
16929;DHT22;8581;47.334;11.190;2023-05-07T12:20:55;27.30;87.80
16929;DHT22;8581;47.334;11.190;2023-05-07T12:23:26;26.70;90.30
16929;DHT22;8581;47.334;11.190;2023-05-07T12:25:58;25.90;91.40
16929;DHT22;8581;47.334;11.190;2023-05-07T12:28:30;24.50;91.70
16929;DHT22;8581;47.334;11.190;2023-05-07T12:31:01;23.20;93.40
16929;DHT22;8581;47.334;11.190;2023-05-07T12:33:33;22.50;94.60
16929;DHT22;8581;47.334;11.190;2023-05-07T12:36:06;22.20;95.20
16929;DHT22;8581;47.334;11.190;2023-05-07T12:38:38;23.40;95.00
16929;DHT22;8581;47.334;11.190;2023-05-07T12:41:10;23.70;93.10
16929;DHT22;8581;47.334;11.190;2023-05-07T12:43:44;24.10;93.00
16929;DHT22;8581;47.334;11.190;2023-05-07T12:46:16;23.60;93.40
16929;DHT22;8581;47.334;11.190;2023-05-07T12:48:48;22.80;93.20
16929;DHT22;8581;47.334;11.190;2023-05-07T12:51:19;24.90;92.40
16929;DHT22;8581;47.334;11.190;2023-05-07T12:53:51;26.70;91.30
16929;DHT22;8581;47.334;11.190;2023-05-07T12:56:22;28.30;90.00
16929;DHT22;8581;47.334;11.190;2023-05-07T12:58:56;29.20;86.60
16929;DHT22;8581;47.334;11.190;2023-05-07T13:01:29;29.60;82.50
16929;DHT22;8581;47.334;11.190;2023-05-07T13:04:01;30.00;85.10
16929;DHT22;8581;47.334;11.190;2023-05-07T13:06:32;30.70;79.80
16929;DHT22;8581;47.334;11.190;2023-05-07T13:09:03;30.60;83.00
16929;DHT22;8581;47.334;11.190;2023-05-07T13:11:35;32.30;78.20
16929;DHT22;8581;47.334;11.190;2023-05-07T13:14:07;32.10;75.10
16929;DHT22;8581;47.334;11.190;2023-05-07T13:16:38;32.20;75.50
16929;DHT22;8581;47.334;11.190;2023-05-07T13:19:10;33.10;74.20
16929;DHT22;8581;47.334;11.190;2023-05-07T13:21:42;33.10;71.50
16929;DHT22;8581;47.334;11.190;2023-05-07T13:24:13;32.60;71.40
16929;DHT22;8581;47.334;11.190;2023-05-07T13:26:45;33.20;72.90
16929;DHT22;8581;47.334;11.190;2023-05-07T13:29:17;31.70;70.30
16929;DHT22;8581;47.334;11.190;2023-05-07T13:31:48;30.40;73.40
16929;DHT22;8581;47.334;11.190;2023-05-07T13:34:20;28.40;75.10
16929;DHT22;8581;47.334;11.190;2023-05-07T13:36:51;27.50;79.00
16929;DHT22;8581;47.334;11.190;2023-05-07T13:39:23;26.70;79.50
16929;DHT22;8581;47.334;11.190;2023-05-07T13:41:55;25.20;82.10
16929;DHT22;8581;47.334;11.190;2023-05-07T13:44:26;24.80;83.50
16929;DHT22;8581;47.334;11.190;2023-05-07T13:46:58;24.80;83.40
16929;DHT22;8581;47.334;11.190;2023-05-07T13:49:31;24.40;85.40
16929;DHT22;8581;47.334;11.190;2023-05-07T13:52:03;24.30;84.20
16929;DHT22;8581;47.334;11.190;2023-05-07T13:54:34;24.30;88.50
16929;DHT22;8581;47.334;11.190;2023-05-07T13:57:05;23.80;87.20
16929;DHT22;8581;47.334;11.190;2023-05-07T13:59:37;23.70;87.50
16929;DHT22;8581;47.334;11.190;2023-05-07T14:02:09;24.20;88.20
16929;DHT22;8581;47.334;11.190;2023-05-07T14:04:40;24.50;88.60
16929;DHT22;8581;47.334;11.190;2023-05-07T14:07:12;24.80;86.80
16929;DHT22;8581;47.334;11.190;2023-05-07T14:09:44;24.30;88.00
16929;DHT22;8581;47.334;11.190;2023-05-07T14:12:16;24.30;87.90
16929;DHT22;8581;47.334;11.190;2023-05-07T14:14:47;24.20;89.00
16929;DHT22;8581;47.334;11.190;2023-05-07T14:17:19;23.80;90.00
16929;DHT22;8581;47.334;11.190;2023-05-07T14:19:53;23.60;90.10
16929;DHT22;8581;47.334;11.190;2023-05-07T14:22:25;24.30;90.40
16929;DHT22;8581;47.334;11.190;2023-05-07T14:24:57;24.20;90.20
16929;DHT22;8581;47.334;11.190;2023-05-07T14:27:28;26.10;86.40
16929;DHT22;8581;47.334;11.190;2023-05-07T14:30:00;27.10;84.50
16929;DHT22;8581;47.334;11.190;2023-05-07T14:32:32;28.40;80.70
16929;DHT22;8581;47.334;11.190;2023-05-07T14:35:04;29.70;80.30
16929;DHT22;8581;47.334;11.190;2023-05-07T14:37:36;31.20;78.50
16929;DHT22;8581;47.334;11.190;2023-05-07T14:40:08;30.80;78.10
16929;DHT22;8581;47.334;11.190;2023-05-07T14:42:40;31.40;79.40
16929;DHT22;8581;47.334;11.190;2023-05-07T14:45:12;30.40;80.20
16929;DHT22;8581;47.334;11.190;2023-05-07T14:47:43;30.60;81.00
16929;DHT22;8581;47.334;11.190;2023-05-07T14:50:15;31.30;79.20
16929;DHT22;8581;47.334;11.190;2023-05-07T14:52:46;31.10;82.60
16929;DHT22;8581;47.334;11.190;2023-05-07T14:55:18;31.70;81.20
16929;DHT22;8581;47.334;11.190;2023-05-07T14:57:50;31.20;80.90
16929;DHT22;8581;47.334;11.190;2023-05-07T15:00:22;31.10;81.70
16929;DHT22;8581;47.334;11.190;2023-05-07T15:02:54;31.50;81.00
16929;DHT22;8581;47.334;11.190;2023-05-07T15:05:25;31.20;80.20
16929;DHT22;8581;47.334;11.190;2023-05-07T15:07:57;29.80;81.80
16929;DHT22;8581;47.334;11.190;2023-05-07T15:10:28;26.70;87.00
16929;DHT22;8581;47.334;11.190;2023-05-07T15:13:00;25.10;90.50
16929;DHT22;8581;47.334;11.190;2023-05-07T15:15:31;23.90;90.90
16929;DHT22;8581;47.334;11.190;2023-05-07T15:18:03;23.20;93.00
16929;DHT22;8581;47.334;11.190;2023-05-07T15:20:36;22.40;94.10
16929;DHT22;8581;47.334;11.190;2023-05-07T15:23:06;22.10;95.20
16929;DHT22;8581;47.334;11.190;2023-05-07T15:25:38;22.20;95.00
16929;DHT22;8581;47.334;11.190;2023-05-07T15:28:09;22.80;95.60
16929;DHT22;8581;47.334;11.190;2023-05-07T15:30:41;24.40;93.50
16929;DHT22;8581;47.334;11.190;2023-05-07T15:33:13;25.90;92.30
16929;DHT22;8581;47.334;11.190;2023-05-07T15:35:44;27.90;90.10
16929;DHT22;8581;47.334;11.190;2023-05-07T15:38:16;29.20;86.00
16929;DHT22;8581;47.334;11.190;2023-05-07T15:40:47;30.00;86.60
16929;DHT22;8581;47.334;11.190;2023-05-07T15:43:19;28.90;85.80
16929;DHT22;8581;47.334;11.190;2023-05-07T15:45:51;28.30;86.80
16929;DHT22;8581;47.334;11.190;2023-05-07T15:48:22;29.10;84.30
16929;DHT22;8581;47.334;11.190;2023-05-07T15:50:54;29.20;85.70
16929;DHT22;8581;47.334;11.190;2023-05-07T15:53:26;28.60;86.20
16929;DHT22;8581;47.334;11.190;2023-05-07T15:55:57;29.00;85.30
16929;DHT22;8581;47.334;11.190;2023-05-07T15:58:29;28.70;84.40
16929;DHT22;8581;47.334;11.190;2023-05-07T16:01:00;29.10;85.00
16929;DHT22;8581;47.334;11.190;2023-05-07T16:03:32;29.00;84.80
16929;DHT22;8581;47.334;11.190;2023-05-07T16:06:04;28.80;84.10
16929;DHT22;8581;47.334;11.190;2023-05-07T16:08:35;28.50;83.90
16929;DHT22;8581;47.334;11.190;2023-05-07T16:11:07;27.50;85.10